createdAt,value
2022-09-15T00:03:15.279Z,6.10
2022-09-15T00:08:22.562Z,6.20
2022-09-15T00:13:29.563Z,4.60
2022-09-15T00:18:38.059Z,4.20
2022-09-15T00:23:45.214Z,4.50
2022-09-15T00:28:52.747Z,7.70
2022-09-15T00:34:03.432Z,4.60
2022-09-15T00:39:10.397Z,5.40
2022-09-15T00:44:51.760Z,4.40
2022-09-15T00:50:02.965Z,9.00
2022-09-15T00:55:13.985Z,4.90
2022-09-15T01:00:24.270Z,5.50
2022-09-15T01:05:35.203Z,7.70
2022-09-15T01:10:45.189Z,5.50
2022-09-15T01:16:04.591Z,7.90
2022-09-15T01:21:32.189Z,4.50
2022-09-15T01:27:18.776Z,6.20
2022-09-15T01:32:54.846Z,6.80
2022-09-15T01:38:05.471Z,6.20
2022-09-15T01:43:15.333Z,5.60
2022-09-15T01:48:26.376Z,5.90
2022-09-15T01:53:35.334Z,6.40
2022-09-15T01:58:44.065Z,6.40
2022-09-15T02:03:55.780Z,5.00
2022-09-15T02:09:09.099Z,6.30
2022-09-15T02:14:21.229Z,8.10
2022-09-15T02:19:34.697Z,7.00
2022-09-15T02:24:46.518Z,5.60
2022-09-15T02:29:57.995Z,6.80
2022-09-15T02:35:08.143Z,8.30
2022-09-15T02:40:16.670Z,6.20
2022-09-15T02:45:24.525Z,6.20
2022-09-15T02:50:31.464Z,5.80
2022-09-15T02:55:38.684Z,7.40
2022-09-15T03:00:45.685Z,6.60
2022-09-15T03:05:52.666Z,8.30
2022-09-15T03:11:02.135Z,8.30
2022-09-15T03:16:13.943Z,9.00
2022-09-15T03:21:21.377Z,9.00
2022-09-15T03:26:28.829Z,6.50
2022-09-15T03:31:35.955Z,9.50
2022-09-15T03:36:43.467Z,6.80
2022-09-15T03:41:50.499Z,9.10
2022-09-15T03:46:58.470Z,8.20
2022-09-15T03:52:06.466Z,7.40
2022-09-15T03:57:13.589Z,7.40
2022-09-15T04:02:21.678Z,5.40
2022-09-15T04:07:28.765Z,6.70
2022-09-15T04:12:36.291Z,6.80
2022-09-15T04:17:43.325Z,8.70
2022-09-15T04:22:50.581Z,7.50
2022-09-15T04:27:57.805Z,8.20
2022-09-15T04:33:04.870Z,6.00
2022-09-15T04:38:11.870Z,6.80
2022-09-15T04:43:18.936Z,9.10
2022-09-15T04:48:26.885Z,10.20
2022-09-15T04:53:34.002Z,7.70
2022-09-15T04:58:43.340Z,9.80
2022-09-15T05:03:50.358Z,8.70
2022-09-15T05:08:59.250Z,9.30
2022-09-15T05:14:06.299Z,9.60
2022-09-15T05:19:14.378Z,6.80
2022-09-15T05:24:21.256Z,8.70
2022-09-15T05:29:28.510Z,10.20
2022-09-15T05:34:36.112Z,9.30
2022-09-15T05:39:43.471Z,10.10
2022-09-15T05:44:50.367Z,12.80
2022-09-15T05:49:57.175Z,11.00
2022-09-15T05:55:04.069Z,10.30
2022-09-15T06:00:13.784Z,9.90
2022-09-15T06:05:21.266Z,11.10
2022-09-15T06:10:28.523Z,11.00
2022-09-15T06:15:35.866Z,10.80
2022-09-15T06:20:43.256Z,9.20
2022-09-15T06:25:50.333Z,12.40
2022-09-15T06:30:57.300Z,12.20
2022-09-15T06:36:07.859Z,8.60
2022-09-15T06:41:15.183Z,11.90
2022-09-15T06:46:23.628Z,9.90
2022-09-15T06:51:35.773Z,9.10
2022-09-15T07:01:48.479Z,8.00
2022-09-15T07:06:55.472Z,6.40
2022-09-15T07:12:02.795Z,5.50
2022-09-15T07:17:10.115Z,6.20
2022-09-15T07:22:17.270Z,5.60
2022-09-15T07:27:27.425Z,5.20
2022-09-15T07:32:34.803Z,6.50
2022-09-15T07:37:41.818Z,7.30
2022-09-15T07:42:49.088Z,4.80
2022-09-15T07:47:56.501Z,5.00
2022-09-15T07:53:03.930Z,3.70
2022-09-15T07:58:11.685Z,6.70
2022-09-15T08:03:19.312Z,3.90
2022-09-15T08:08:27.320Z,4.60
2022-09-15T08:13:34.765Z,3.70
2022-09-15T08:18:43.580Z,9.40
2022-09-15T08:23:57.325Z,5.20
2022-09-15T08:29:07.348Z,8.40
2022-09-15T08:34:21.507Z,2.80
2022-09-15T08:39:32.282Z,3.00
2022-09-15T08:44:53.612Z,4.30
2022-09-15T08:50:05.800Z,2.70
2022-09-15T09:00:23.244Z,3.30
2022-09-15T09:05:52.893Z,3.90
2022-09-15T09:11:07.572Z,1.70
2022-09-15T09:16:48.767Z,1.60
2022-09-15T09:22:01.529Z,4.30
2022-09-15T09:27:13.432Z,2.40
2022-09-15T09:37:29.733Z,1.20
2022-09-15T09:42:38.533Z,1.60
2022-09-15T09:47:46.650Z,2.10
2022-09-15T09:52:53.732Z,1.50
2022-09-15T09:58:16.336Z,2.50
2022-09-15T10:03:29.273Z,1.10
2022-09-15T10:08:53.078Z,1.10
2022-09-15T10:14:00.311Z,0.80
2022-09-15T10:19:07.325Z,0.30
2022-09-15T10:24:36.764Z,1.00
2022-09-15T10:29:43.861Z,1.50
2022-09-15T10:34:51.609Z,0.80
2022-09-15T10:40:00.461Z,0.60
2022-09-15T10:45:25.321Z,2.90
2022-09-15T10:50:36.404Z,2.30
2022-09-15T10:55:57.310Z,2.50
2022-09-15T11:01:20.798Z,2.50
2022-09-15T11:06:36.419Z,3.70
2022-09-15T11:11:54.267Z,1.90
2022-09-15T11:17:20.687Z,1.90
2022-09-15T11:22:30.527Z,5.60
2022-09-15T11:27:43.230Z,2.80
2022-09-15T11:32:57.929Z,1.90
2022-09-15T11:38:19.961Z,4.60
2022-09-15T11:43:35.972Z,2.40
2022-09-15T11:48:49.579Z,5.10
2022-09-15T11:54:03.207Z,4.70
2022-09-15T11:59:21.725Z,4.00
2022-09-15T12:04:33.721Z,2.30
2022-09-15T12:09:42.535Z,1.50
2022-09-15T12:14:51.972Z,4.00
2022-09-15T12:20:04.419Z,1.70
2022-09-15T12:25:18.423Z,2.80
2022-09-15T12:36:41.951Z,2.50
2022-09-15T12:41:53.037Z,1.50
2022-09-15T12:47:03.517Z,3.70
2022-09-15T12:52:11.520Z,3.20
2022-09-15T12:57:27.092Z,5.00
2022-09-15T13:02:48.843Z,3.50
2022-09-15T13:08:00.682Z,1.60
2022-09-15T13:18:27.728Z,4.00
2022-09-15T13:23:40.286Z,3.10
2022-09-15T13:28:51.501Z,3.50
2022-09-15T13:40:22.712Z,2.00
2022-09-15T13:45:44.519Z,3.80
2022-09-15T13:56:08.210Z,3.60
2022-09-15T14:01:18.409Z,2.00
2022-09-15T14:06:30.676Z,2.00
2022-09-15T14:11:40.162Z,3.50
2022-09-15T14:16:52.965Z,2.90
2022-09-15T14:22:00.501Z,5.20
2022-09-15T14:27:14.689Z,3.90
2022-09-15T14:32:22.521Z,3.50
2022-09-15T14:37:32.384Z,2.70
2022-09-15T14:42:43.738Z,2.20
2022-09-15T14:48:00.195Z,3.60
2022-09-15T14:53:09.481Z,4.50
2022-09-15T14:58:23.175Z,2.60
2022-09-15T15:03:37.315Z,1.50
2022-09-15T15:08:49.743Z,2.00
2022-09-15T15:13:57.944Z,2.90
2022-09-15T15:19:05.445Z,2.20
2022-09-15T15:24:28.789Z,3.60
2022-09-15T15:29:47.433Z,1.60
2022-09-15T15:34:56.573Z,1.50
2022-09-15T15:40:08.163Z,4.50
2022-09-15T15:50:33.717Z,2.30
2022-09-15T15:55:45.164Z,3.60
2022-09-15T16:00:54.981Z,3.10
2022-09-15T16:06:03.605Z,3.20
2022-09-15T16:11:13.351Z,2.30
2022-09-15T16:16:22.659Z,1.10
2022-09-15T16:21:37.335Z,3.00
2022-09-15T16:26:45.338Z,2.90
2022-09-15T16:31:53.146Z,1.40
2022-09-15T16:37:00.710Z,2.50
2022-09-15T16:42:09.644Z,2.50
2022-09-15T16:47:17.323Z,3.30
2022-09-15T16:52:25.121Z,3.60
2022-09-15T16:57:32.570Z,2.80
2022-09-15T17:02:39.758Z,2.30
2022-09-15T17:07:47.216Z,2.80
2022-09-15T17:12:54.499Z,2.50
2022-09-15T17:18:02.136Z,6.10
2022-09-15T17:23:23.710Z,1.80
2022-09-15T17:28:32.985Z,1.70
2022-09-15T17:33:39.846Z,3.30
2022-09-15T17:38:49.228Z,1.80
2022-09-15T17:43:56.540Z,2.80
2022-09-15T17:49:03.857Z,2.60
2022-09-15T17:54:12.826Z,3.10
2022-09-15T17:59:20.204Z,5.10
2022-09-15T18:04:27.551Z,2.70
2022-09-15T18:09:34.861Z,2.10
2022-09-15T18:14:42.582Z,0.90
2022-09-15T18:19:49.666Z,1.60
2022-09-15T18:24:56.739Z,1.40
2022-09-15T18:30:04.407Z,1.90
2022-09-15T18:35:16.345Z,1.10
2022-09-15T18:40:26.267Z,2.80
2022-09-15T18:45:33.461Z,2.80
2022-09-15T18:50:40.793Z,4.30
2022-09-15T18:55:48.075Z,3.40
2022-09-15T19:01:00.743Z,2.40
2022-09-15T19:06:08.629Z,3.00
2022-09-15T19:11:15.500Z,2.50
2022-09-15T19:16:34.510Z,2.70
2022-09-15T19:21:47.871Z,3.20
2022-09-15T19:26:54.883Z,1.10
2022-09-15T19:32:02.536Z,2.50
2022-09-15T19:37:13.164Z,2.60
2022-09-15T19:42:23.530Z,2.50
2022-09-15T19:47:30.724Z,2.30
2022-09-15T19:52:37.946Z,3.50
2022-09-15T19:57:46.808Z,2.60
2022-09-15T20:02:53.953Z,2.50
2022-09-15T20:08:01.260Z,2.50
2022-09-15T20:13:08.583Z,2.60
2022-09-15T20:18:17.969Z,2.90
2022-09-15T20:23:25.261Z,3.60
2022-09-15T20:28:32.803Z,2.30
2022-09-15T20:33:41.406Z,2.10
2022-09-15T20:38:50.129Z,2.40
2022-09-15T20:43:57.543Z,3.30
2022-09-15T20:49:05.022Z,3.10
2022-09-15T20:54:13.578Z,1.90
2022-09-15T20:59:20.749Z,2.50
2022-09-15T21:04:28.140Z,2.20
2022-09-15T21:09:35.520Z,4.30
2022-09-15T21:14:42.588Z,2.60
2022-09-15T21:19:49.707Z,1.60
2022-09-15T21:24:56.861Z,6.10
2022-09-15T21:30:03.900Z,4.10
2022-09-15T21:35:11.781Z,3.40
2022-09-15T21:40:19.158Z,2.50
2022-09-15T21:45:26.211Z,5.30
2022-09-15T21:50:33.341Z,4.00
2022-09-15T21:55:41.139Z,4.70
2022-09-15T22:00:48.223Z,3.80
2022-09-15T22:05:56.411Z,2.90
2022-09-15T22:11:03.987Z,3.90
2022-09-15T22:16:14.525Z,2.20
2022-09-15T22:21:23.577Z,4.70
2022-09-15T22:26:32.308Z,6.10
2022-09-15T22:31:39.384Z,4.20
2022-09-15T22:36:46.540Z,2.70
2022-09-15T22:41:53.711Z,4.30
2022-09-15T22:47:01.274Z,3.20
2022-09-15T22:52:08.468Z,4.70
2022-09-15T22:57:15.791Z,5.80
2022-09-15T23:02:23.186Z,4.50
2022-09-15T23:07:30.273Z,3.70
2022-09-15T23:12:37.377Z,3.30
2022-09-15T23:17:44.378Z,3.70
2022-09-15T23:22:51.583Z,4.30
2022-09-15T23:27:58.612Z,5.30
2022-09-15T23:33:06.578Z,5.30
2022-09-15T23:38:14.240Z,2.40
2022-09-15T23:43:22.423Z,3.60
2022-09-15T23:48:31.950Z,1.80
2022-09-15T23:53:40.242Z,3.60
2022-09-15T23:58:48.571Z,4.30
